Flight Track Log - Related Links

Times and Time Zones

All times are in EDT time to prevent confusion due to time zone crossing. See the AIE860 flight status page for this flight to view local times or setup timezone preferences in your user account.


Time Position Orientation Groundspeed Altitude Reporting Facility
EDT Latitude Longitude Course Direction KTS MPH feet Rate Location/Type
Sun 08:11:00 AM 58.4191 -68.9285 322° Northwest  Level FlightAware Approximate
Sun 08:12:00 AM 58.4679 -69.0016 322° Northwest  Level FlightAware Approximate
Sun 08:13:00 AM 58.5166 -69.0748 322° Northwest  Level FlightAware Approximate
Sun 08:14:00 AM 58.5651 -69.1488 321° Northwest  Level FlightAware Approximate
Sun 08:15:00 AM 58.6134 -69.2233 321° Northwest  Level FlightAware Approximate
Sun 08:16:00 AM 58.6617 -69.2980 321° Northwest  Level FlightAware Approximate
Sun 08:17:00 AM 58.7100 -69.3729 321° Northwest  Level FlightAware Approximate
Sun 08:18:00 AM 58.7578 -69.4488 320° Northwest  Level FlightAware Approximate
Sun 08:19:00 AM 58.8055 -69.5251 320° Northwest  Level FlightAware Approximate
Sun 08:20:00 AM 58.8532 -69.6016 320° Northwest  Level FlightAware Approximate
Sun 08:21:00 AM 58.9014 -69.6770 322° Northwest  Level FlightAware Approximate
Sun 08:22:00 AM 58.9505 -69.7503 322° Northwest  Level FlightAware Approximate
Sun 08:23:00 AM 58.9996 -69.8238 322° Northwest  Level FlightAware Approximate
Sun 08:24:00 AM 59.0486 -69.8976 322° Northwest  Level FlightAware Approximate
Sun 08:25:00 AM 59.0972 -69.9724 320° Northwest  Level FlightAware Approximate
Sun 08:26:00 AM 59.1448 -70.0497 320° Northwest  Level FlightAware Approximate
Sun 08:27:00 AM 59.1924 -70.1271 320° Northwest  Level FlightAware Approximate
Sun 08:28:00 AM 59.2398 -70.2051 320° Northwest  Level FlightAware Approximate
Sun 08:29:00 AM 59.2870 -70.2837 320° Northwest  Level FlightAware Approximate
Sun 08:30:00 AM 59.3342 -70.3625 320° Northwest  Level FlightAware Approximate
Sun 08:31:00 AM 59.3813 -70.4415 320° Northwest  Level FlightAware Approximate
Sun 08:32:00 AM 59.4284 -70.5208 319° Northwest  Level FlightAware Approximate
Sun 08:33:00 AM 59.4754 -70.6002 319° Northwest  Level FlightAware Approximate
Sun 08:34:00 AM 59.5224 -70.6799 319° Northwest  Level FlightAware Approximate
Sun 08:35:00 AM 59.5693 -70.7598 319° Northwest  Level FlightAware Approximate
Sun 08:36:00 AM 59.6162 -70.8399 319° Northwest  Level FlightAware Approximate
Sun 08:37:00 AM 59.6631 -70.9203 319° Northwest  Level FlightAware Approximate
Sun 08:38:00 AM 59.7098 -71.0008 319° Northwest  Level FlightAware Approximate
Sun 08:39:00 AM 59.7566 -71.0816 319° Northwest  Level FlightAware Approximate
Sun 08:40:00 AM 59.8032 -71.1627 319° Northwest  Level FlightAware Approximate
Sun 08:41:00 AM 59.8499 -71.2439 319° Northwest  Level FlightAware Approximate
Sun 08:42:00 AM 59.8965 -71.3254 319° Northwest  Level FlightAware Approximate
Sun 08:43:00 AM 59.9430 -71.4071 319° Northwest  Level FlightAware Approximate
Sun 08:44:00 AM 59.9895 -71.4890 319° Northwest  Level FlightAware Approximate
Sun 08:45:00 AM 60.0359 -71.5711 319° Northwest  Level FlightAware Approximate
Sun 08:46:00 AM 60.0827 -71.6525 319° Northwest  Level FlightAware Approximate
Sun 08:47:00 AM 60.1295 -71.7341 319° Northwest  Level FlightAware Approximate
Sun 08:48:00 AM 60.1762 -71.8160 319° Northwest  Level FlightAware Approximate
Sun 08:49:00 AM 60.2229 -71.8981 319° Northwest  Level FlightAware Approximate
Sun 08:50:00 AM 60.2695 -71.9804 319° Northwest  Level FlightAware Approximate
Sun 08:51:00 AM 60.3161 -72.0629 319° Northwest  Level FlightAware Approximate
Sun 08:52:00 AM 60.3626 -72.1457 319° Northwest  Level FlightAware Approximate
Sun 08:53:00 AM 60.4091 -72.2287 319° Northwest  Level FlightAware Approximate
Sun 08:54:00 AM 60.4555 -72.3120 319° Northwest  Level FlightAware Approximate
Sun 08:55:00 AM 60.5018 -72.3955 318° Northwest  Level FlightAware Approximate
Sun 08:56:00 AM 60.5481 -72.4792 318° Northwest  Level FlightAware Approximate
Sun 08:57:00 AM 60.5944 -72.5632 318° Northwest  Level FlightAware Approximate
Sun 08:58:00 AM 60.6406 -72.6474 318° Northwest  Level FlightAware Approximate
Sun 08:59:00 AM 60.6868 -72.7319 318° Northwest  Level FlightAware Approximate
Sun 09:00:00 AM 60.7329 -72.8166 318° Northwest  Level FlightAware Approximate
Sun 09:01:00 AM 60.7789 -72.9015 318° Northwest  Level FlightAware Approximate
Sun 09:02:00 AM 60.8249 -72.9867 318° Northwest  Level FlightAware Approximate
Sun 09:03:00 AM 60.8705 -73.0728 317° Northwest  Level FlightAware Approximate
Sun 09:04:00 AM 60.9158 -73.1599 317° Northwest  Level FlightAware Approximate
Sun 09:05:00 AM 60.9610 -73.2473 317° Northwest  Level FlightAware Approximate
Sun 09:06:00 AM 61.0061 -73.3349 317° Northwest  Level FlightAware Approximate
Sun 09:07:00 AM 61.0512 -73.4227 317° Northwest  Level FlightAware Approximate
Sun 09:08:00 AM 61.0962 -73.5108 317° Northwest  Level FlightAware Approximate
Sun 09:09:00 AM 61.1411 -73.5992 317° Northwest  Level FlightAware Approximate
Sun 09:10:00 AM 61.1867 -73.6862 318° Northwest  Level FlightAware Approximate
Sun 09:11:00 AM 61.2325 -73.7730 318° Northwest  Level FlightAware Approximate
Sun 09:12:00 AM 61.2782 -73.8601 318° Northwest  Level FlightAware Approximate
Sun 09:13:00 AM 61.3238 -73.9474 317° Northwest  Level FlightAware Approximate
Sun 09:14:00 AM 61.3694 -74.0350 317° Northwest  Level FlightAware Approximate
Sun 09:15:00 AM 61.4149 -74.1229 317° Northwest  Level FlightAware Approximate
Sun 09:16:00 AM 61.4604 -74.2110 317° Northwest  Level FlightAware Approximate
Sun 09:17:00 AM 61.5058 -74.2994 317° Northwest  Level FlightAware Approximate
Sun 09:18:00 AM 61.5512 -74.3880 317° Northwest  Level FlightAware Approximate
Sun 09:19:00 AM 61.5965 -74.4769 317° Northwest  Level FlightAware Approximate
Sun 09:20:00 AM 61.6416 -74.5663 317° Northwest  Level FlightAware Approximate
Sun 09:21:00 AM 61.6866 -74.6562 317° Northwest  Level FlightAware Approximate
Sun 09:22:00 AM 61.7315 -74.7463 316° Northwest  Level FlightAware Approximate
Sun 09:23:00 AM 61.7744 -74.8408 314° West  Level FlightAware Approximate
Sun 09:24:00 AM 61.8172 -74.9357 314° West  Level FlightAware Approximate
Sun 09:25:00 AM 61.8599 -75.0309 314° West  Level FlightAware Approximate
Sun 09:26:00 AM 61.9049 -75.1209 321° Northwest  Level FlightAware Approximate
Sun 09:27:00 AM 61.9528 -75.2046 321° Northwest  Level FlightAware Approximate
Sun 09:28:00 AM 62.0006 -75.2885 321° Northwest  Level FlightAware Approximate
Sun 09:29:00 AM 62.0445 -75.3815 312° West  Level FlightAware Approximate
Sun 09:30:00 AM 62.0831 -75.4787 321° Northwest  Level FlightAware Approximate
Sun 09:31:00 AM 62.1311 -75.5627 321° Northwest  Level FlightAware Approximate
Sun 09:32:00 AM 62.1667 -75.6667 306° West  Level FlightAware Approximate
Sun 09:33:00 AM 62.1792 -75.6669 306° West  Level Estimated
Sun 09:34:00 AM 62.1792 -75.6669 306° West  Level Estimated
Sun 09:35:00 AM 62.1792 -75.6669 306° West  Level Estimated
Sun 09:36:00 AM 62.1792 -75.6669 306° West  Level Estimated
Sun 09:37:00 AM 62.1792 -75.6669 306° West  Level Estimated
Sun 09:38:00 AM 62.1792 -75.6669 306° West  Level Estimated
Sun 09:39:00 AM 62.1792 -75.6669 306° West  Level Estimated
Sun 09:40:00 AM 62.1792 -75.6669 306° West  Level Estimated
Sun 09:41:00 AM 62.1792 -75.6669 306° West  Level Estimated
Sun 09:42:00 AM 62.1792 -75.6669 306° West  Level Estimated
Sun 09:43:00 AM 62.1792 -75.6669 306° West  Level Estimated
Sun 09:44:00 AM 62.1792 -75.6669 306° West  Level Estimated
Sun 09:45:00 AM 62.1792 -75.6669 306° West  Level Estimated
Sun 09:46:00 AM 62.1792 -75.6669 306° West  Level Estimated
Sun 09:47:00 AM 62.1792 -75.6669 306° West  Level Estimated

Login

Don't have an account? Register now (free) for customized features, flight alerts, and more!